Time;durP1;ratioP1;P1;durP2;ratioP2;P2;SDS_P1;SDS_P2;PMS_P1;PMS_P2;Temp;Humidity;BMP_temperature;BMP_pressure;BME280_temperature;BME280_humidity;BME280_pressure;Samples;Min_cycle;Max_cycle;Signal;HPM_P1;HPM_P2
2023/01/11 00:01:31;;;;;;;;;;;5.60;99.90;;;;;;5019746;28;20368;-64
2023/01/11 00:04:22;;;;;;;;;;;5.60;99.90;;;;;;5016542;28;19929;-64
2023/01/11 00:06:49;;;;;;;;;;;5.60;99.90;;;;;;5023210;28;19925;-64
2023/01/11 00:09:17;;;;;;;;;;;5.60;99.90;;;;;;5018788;28;20342;-65
2023/01/11 00:11:45;;;;;;;;;;;5.60;99.90;;;;;;5025236;28;19935;-64
2023/01/11 00:14:13;;;;;;;;;;;5.70;99.90;;;;;;5019962;28;20007;-64
2023/01/11 00:16:41;;;;;;;;;;;5.70;99.90;;;;;;5084036;22;19971;-61
2023/01/11 00:19:09;;;;;;;;;;;5.70;99.90;;;;;;5089874;28;20456;-61
2023/01/11 00:21:38;;;;;;;;;;;5.60;99.90;;;;;;5087682;28;20461;-61
2023/01/11 00:24:06;;;;;;;;;;;5.60;99.90;;;;;;5089509;28;20385;-61
2023/01/11 00:26:33;;;;;;;;;;;5.60;99.90;;;;;;5072616;28;20361;-62
2023/01/11 00:29:01;;;;;;;;;;;5.70;99.90;;;;;;5066197;28;20362;-61
2023/01/11 00:31:29;;;;;;;;;;;5.70;99.90;;;;;;5062041;28;19931;-61
2023/01/11 00:33:56;;;;;;;;;;;5.70;99.90;;;;;;5069994;28;19986;-61
2023/01/11 00:36:24;;;;;;;;;;;5.70;99.90;;;;;;5061054;28;20320;-61
2023/01/11 00:38:54;;;;;;;;;;;5.70;99.90;;;;;;5062630;28;19935;-62
2023/01/11 00:49:39;;;;;;;;;;;5.80;99.90;;;;;;5066014;28;19937;-61
2023/01/11 00:52:08;;;;;;;;;;;5.80;99.90;;;;;;5062078;28;19924;-61
2023/01/11 00:54:38;;;;;;;;;;;5.80;99.90;;;;;;5065211;28;19954;-61
2023/01/11 00:57:06;;;;;;;;;;;5.90;99.90;;;;;;5064487;28;19924;-61
2023/01/11 00:59:34;;;;;;;;;;;5.90;99.90;;;;;;5059307;28;20012;-59
2023/01/11 01:02:02;;;;;;;;;;;5.90;99.90;;;;;;5064288;28;19978;-62
2023/01/11 01:04:36;;;;;;;;;;;5.90;99.90;;;;;;5062608;28;19924;-62
2023/01/11 01:07:03;;;;;;;;;;;6.00;99.90;;;;;;5056293;28;19931;-62
2023/01/11 01:09:31;;;;;;;;;;;5.90;99.90;;;;;;5062496;28;19932;-62
2023/01/11 01:12:01;;;;;;;;;;;6.00;99.90;;;;;;5063604;28;19979;-62
2023/01/11 01:14:28;;;;;;;;;;;6.00;99.90;;;;;;5061832;28;20344;-62
2023/01/11 01:16:57;;;;;;;;;;;5.90;99.90;;;;;;5061890;28;20300;-61
2023/01/11 01:19:26;;;;;;;;;;;5.90;99.90;;;;;;5064163;28;19925;-62
2023/01/11 01:21:55;;;;;;;;;;;5.90;99.90;;;;;;5063392;28;20474;-61
2023/01/11 01:24:23;;;;;;;;;;;5.90;99.90;;;;;;5066922;28;19924;-61
2023/01/11 01:26:50;;;;;;;;;;;5.90;99.90;;;;;;5062009;28;20036;-61
2023/01/11 01:29:19;;;;;;;;;;;6.00;99.90;;;;;;5064244;28;19930;-61
2023/01/11 01:31:47;;;;;;;;;;;6.00;99.90;;;;;;5065468;28;20019;-61
2023/01/11 01:34:15;;;;;;;;;;;6.00;99.90;;;;;;5066437;28;20027;-61
2023/01/11 01:36:42;;;;;;;;;;;6.00;99.90;;;;;;5067544;28;20007;-61
2023/01/11 01:39:11;;;;;;;;;;;6.00;99.90;;;;;;5064120;28;19925;-62
2023/01/11 01:41:39;;;;;;;;;;;6.00;99.90;;;;;;5060779;28;20019;-62
2023/01/11 01:44:21;;;;;;;;;;;6.00;99.90;;;;;;5060123;28;19924;-61
2023/01/11 01:46:50;;;;;;;;;;;6.00;99.90;;;;;;5067754;28;20411;-61
2023/01/11 01:49:18;;;;;;;;;;;6.00;99.90;;;;;;5069395;28;19935;-62
2023/01/11 01:51:47;;;;;;;;;;;6.00;99.90;;;;;;5062731;28;19924;-62
2023/01/11 01:54:16;;;;;;;;;;;6.00;99.90;;;;;;5071426;28;19932;-63
2023/01/11 01:56:46;;;;;;;;;;;6.10;99.90;;;;;;5064567;28;20293;-61
2023/01/11 01:59:15;;;;;;;;;;;6.10;99.90;;;;;;5060523;28;19931;-61
2023/01/11 02:01:49;;;;;;;;;;;6.10;99.90;;;;;;5067035;28;19935;-61
2023/01/11 02:04:21;;;;;;;;;;;6.10;99.90;;;;;;5068748;28;19924;-61
2023/01/11 02:06:50;;;;;;;;;;;6.10;99.90;;;;;;5066067;28;20297;-61
2023/01/11 02:09:20;;;;;;;;;;;6.20;99.90;;;;;;5066817;28;20401;-61
2023/01/11 02:11:49;;;;;;;;;;;6.20;99.90;;;;;;5062428;28;19932;-61
2023/01/11 02:14:18;;;;;;;;;;;6.20;99.90;;;;;;5063427;28;19924;-61
2023/01/11 02:16:46;;;;;;;;;;;6.20;99.90;;;;;;5064483;28;20405;-61
2023/01/11 02:19:20;;;;;;;;;;;6.20;99.90;;;;;;5068709;28;19931;-61
2023/01/11 02:21:56;;;;;;;;;;;6.20;99.90;;;;;;5065331;28;19932;-61
2023/01/11 02:24:41;;;;;;;;;;;6.20;99.90;;;;;;5070210;28;20320;-61
2023/01/11 02:27:16;;;;;;;;;;;6.20;99.90;;;;;;5067530;28;19930;-61
2023/01/11 02:29:49;;;;;;;;;;;6.20;99.90;;;;;;5059926;28;20477;-60
2023/01/11 02:32:23;;;;;;;;;;;6.20;99.90;;;;;;5061133;28;19924;-61
2023/01/11 02:34:57;;;;;;;;;;;6.20;99.90;;;;;;5066764;28;19931;-61
2023/01/11 02:37:28;;;;;;;;;;;6.20;99.90;;;;;;5066767;28;19930;-61
2023/01/11 02:40:02;;;;;;;;;;;6.20;99.90;;;;;;5063315;28;19933;-61
2023/01/11 02:45:27;;;;;;;;;;;6.30;99.90;;;;;;5069423;28;19925;-61
2023/01/11 02:47:57;;;;;;;;;;;6.30;99.90;;;;;;5058737;28;19925;-62
2023/01/11 02:50:29;;;;;;;;;;;6.30;99.90;;;;;;5067586;28;20051;-62
2023/01/11 02:52:59;;;;;;;;;;;6.20;99.90;;;;;;5068074;28;19924;-62
2023/01/11 02:55:30;;;;;;;;;;;6.20;99.90;;;;;;5066979;28;19924;-62
2023/01/11 02:58:00;;;;;;;;;;;6.20;99.90;;;;;;5066572;28;20292;-62
2023/01/11 03:00:30;;;;;;;;;;;6.30;99.90;;;;;;5066021;28;20403;-63
2023/01/11 03:03:15;;;;;;;;;;;6.30;99.90;;;;;;5063890;28;19925;-63
2023/01/11 03:05:45;;;;;;;;;;;6.30;99.90;;;;;;5067152;28;19975;-63
2023/01/11 03:08:17;;;;;;;;;;;6.40;99.90;;;;;;5064972;28;20404;-62
2023/01/11 03:10:49;;;;;;;;;;;6.30;99.90;;;;;;5064438;28;19955;-62
2023/01/11 03:13:24;;;;;;;;;;;6.40;99.90;;;;;;5060105;28;20011;-62
2023/01/11 03:16:07;;;;;;;;;;;6.40;99.90;;;;;;5064524;28;19939;-62
2023/01/11 03:18:42;;;;;;;;;;;6.40;99.90;;;;;;5059466;28;19925;-62
2023/01/11 03:21:16;;;;;;;;;;;6.40;99.90;;;;;;5061072;28;19931;-62
2023/01/11 03:23:49;;;;;;;;;;;6.40;99.90;;;;;;5068295;28;19929;-62
2023/01/11 03:26:19;;;;;;;;;;;6.50;99.90;;;;;;5067382;28;19946;-62
2023/01/11 03:28:52;;;;;;;;;;;6.50;99.90;;;;;;5062780;28;19928;-62
2023/01/11 03:31:24;;;;;;;;;;;6.50;99.90;;;;;;5062561;28;19934;-62
2023/01/11 03:33:56;;;;;;;;;;;6.50;99.90;;;;;;5065431;28;19925;-63
2023/01/11 03:36:26;;;;;;;;;;;6.60;99.90;;;;;;5062628;28;19935;-62
2023/01/11 03:38:56;;;;;;;;;;;6.60;99.90;;;;;;5061107;28;19931;-62
2023/01/11 03:41:25;;;;;;;;;;;6.60;99.90;;;;;;5055137;28;19932;-60
2023/01/11 03:43:55;;;;;;;;;;;6.60;99.90;;;;;;5055927;28;19928;-62
2023/01/11 03:46:27;;;;;;;;;;;6.60;99.90;;;;;;5065580;28;19925;-61
2023/01/11 03:48:57;;;;;;;;;;;6.70;99.90;;;;;;5061477;28;19924;-62
2023/01/11 03:51:26;;;;;;;;;;;6.60;99.90;;;;;;5064572;28;19935;-62
2023/01/11 03:53:57;;;;;;;;;;;6.70;99.90;;;;;;5066719;28;19935;-62
2023/01/11 03:56:29;;;;;;;;;;;6.70;99.90;;;;;;5060254;28;19959;-62
2023/01/11 03:58:56;;;;;;;;;;;6.70;99.90;;;;;;5066076;28;19931;-62
2023/01/11 04:01:26;;;;;;;;;;;6.70;99.90;;;;;;5059279;28;20366;-62
2023/01/11 04:03:53;;;;;;;;;;;6.70;99.90;;;;;;5064290;28;20023;-62
2023/01/11 04:06:22;;;;;;;;;;;6.70;99.90;;;;;;5060422;28;19960;-62
2023/01/11 04:08:49;;;;;;;;;;;6.70;99.90;;;;;;5057478;28;19928;-62
2023/01/11 04:11:17;;;;;;;;;;;6.70;99.90;;;;;;5060740;28;20032;-62
2023/01/11 04:13:45;;;;;;;;;;;6.70;99.90;;;;;;5060548;28;19931;-62
2023/01/11 04:16:12;;;;;;;;;;;6.70;99.90;;;;;;5064274;28;19925;-62
2023/01/11 04:18:41;;;;;;;;;;;6.70;99.90;;;;;;5066610;28;19963;-62
2023/01/11 04:21:09;;;;;;;;;;;6.80;99.90;;;;;;5061107;28;19925;-62
2023/01/11 04:23:37;;;;;;;;;;;6.80;99.90;;;;;;5070214;28;20027;-62
2023/01/11 04:26:05;;;;;;;;;;;6.80;99.90;;;;;;5065676;28;19924;-62
2023/01/11 04:28:33;;;;;;;;;;;6.80;99.90;;;;;;5064031;28;19928;-62
2023/01/11 04:31:01;;;;;;;;;;;6.80;99.90;;;;;;5062218;28;19924;-63
2023/01/11 04:33:28;;;;;;;;;;;6.80;99.90;;;;;;5065294;28;20021;-62
2023/01/11 04:35:57;;;;;;;;;;;6.80;99.90;;;;;;5066618;28;20400;-62
2023/01/11 04:38:26;;;;;;;;;;;6.90;99.90;;;;;;5067768;28;19931;-62
2023/01/11 04:42:17;;;;;;;;;;;6.80;99.90;;;;;;5064973;28;19936;-62
2023/01/11 04:43:40;;;;;;;;;;;6.90;99.90;;;;;;5058624;28;20374;-62
2023/01/11 04:46:09;;;;;;;;;;;6.90;99.90;;;;;;5059801;28;19925;-62
2023/01/11 04:48:38;;;;;;;;;;;7.00;99.90;;;;;;5065470;28;20015;-62
2023/01/11 04:51:07;;;;;;;;;;;6.90;99.90;;;;;;5058844;28;19925;-61
2023/01/11 04:53:35;;;;;;;;;;;7.00;99.90;;;;;;5064243;28;19933;-62
2023/01/11 04:56:04;;;;;;;;;;;7.00;99.90;;;;;;5069302;28;20320;-62
2023/01/11 04:58:32;;;;;;;;;;;7.00;99.90;;;;;;5068601;28;19932;-62
2023/01/11 05:01:00;;;;;;;;;;;7.00;99.90;;;;;;5065276;28;19940;-62
2023/01/11 05:03:27;;;;;;;;;;;7.10;99.90;;;;;;5062279;28;19925;-62
2023/01/11 05:05:55;;;;;;;;;;;7.00;99.90;;;;;;5060706;28;19925;-62
2023/01/11 05:08:25;;;;;;;;;;;7.10;99.90;;;;;;5055955;28;19935;-62
2023/01/11 05:10:53;;;;;;;;;;;7.10;99.90;;;;;;5054980;28;19924;-62
2023/01/11 05:13:21;;;;;;;;;;;7.10;99.90;;;;;;5062351;28;19931;-62
2023/01/11 05:15:49;;;;;;;;;;;7.10;99.90;;;;;;5060400;28;19925;-62
2023/01/11 05:18:16;;;;;;;;;;;7.10;99.90;;;;;;5062671;28;20047;-61
2023/01/11 05:20:48;;;;;;;;;;;7.10;99.90;;;;;;5059343;28;19928;-62
2023/01/11 05:23:15;;;;;;;;;;;7.10;99.90;;;;;;5063585;28;19924;-62
2023/01/11 05:25:45;;;;;;;;;;;7.10;99.90;;;;;;5061589;28;19933;-62
2023/01/11 05:28:13;;;;;;;;;;;7.20;99.90;;;;;;5060405;28;19925;-61
2023/01/11 05:30:40;;;;;;;;;;;7.10;99.90;;;;;;5059328;28;19925;-62
2023/01/11 05:33:08;;;;;;;;;;;7.10;99.90;;;;;;5057245;28;19925;-62
2023/01/11 05:35:36;;;;;;;;;;;7.10;99.90;;;;;;5071865;28;19930;-62
2023/01/11 05:38:03;;;;;;;;;;;7.20;99.90;;;;;;5071944;28;20308;-62
2023/01/11 05:40:31;;;;;;;;;;;7.20;99.90;;;;;;5067081;28;20027;-62
2023/01/11 05:43:00;;;;;;;;;;;7.20;99.90;;;;;;5071812;28;19958;-64
2023/01/11 05:45:31;;;;;;;;;;;7.30;99.90;;;;;;5061433;28;19987;-61
2023/01/11 05:47:59;;;;;;;;;;;7.30;99.90;;;;;;5062802;28;19986;-62
2023/01/11 05:50:27;;;;;;;;;;;7.30;99.90;;;;;;5053856;28;19928;-61
2023/01/11 05:52:54;;;;;;;;;;;7.40;99.90;;;;;;5063120;28;19929;-62
2023/01/11 05:55:22;;;;;;;;;;;7.30;99.90;;;;;;5059375;28;20382;-61
2023/01/11 05:57:50;;;;;;;;;;;7.30;99.90;;;;;;5064482;28;19925;-61
2023/01/11 06:00:20;;;;;;;;;;;7.30;99.90;;;;;;5063293;28;19932;-62
2023/01/11 06:02:47;;;;;;;;;;;7.40;99.90;;;;;;5065385;28;19925;-62
2023/01/11 06:05:15;;;;;;;;;;;7.40;99.90;;;;;;5063462;28;19925;-62
2023/01/11 06:07:43;;;;;;;;;;;7.40;99.90;;;;;;5059524;28;20370;-61
2023/01/11 06:10:11;;;;;;;;;;;7.40;99.90;;;;;;5064358;28;20057;-62
2023/01/11 06:12:38;;;;;;;;;;;7.40;99.90;;;;;;5059704;28;19939;-63
2023/01/11 06:15:07;;;;;;;;;;;7.40;99.90;;;;;;5064645;28;20344;-61
2023/01/11 06:17:36;;;;;;;;;;;7.40;99.90;;;;;;5109550;22;19928;-66
2023/01/11 06:20:04;;;;;;;;;;;7.50;99.90;;;;;;5098587;28;20390;-65
2023/01/11 06:22:31;;;;;;;;;;;7.50;99.90;;;;;;5099878;28;19930;-66
2023/01/11 06:24:59;;;;;;;;;;;7.50;99.90;;;;;;5093943;28;19924;-66
2023/01/11 06:27:27;;;;;;;;;;;7.50;99.90;;;;;;5104692;28;19928;-66
2023/01/11 06:29:54;;;;;;;;;;;7.50;99.90;;;;;;5090014;28;19928;-65
2023/01/11 06:32:22;;;;;;;;;;;7.50;99.90;;;;;;5080357;28;20006;-65
2023/01/11 06:34:51;;;;;;;;;;;7.40;99.90;;;;;;5081600;28;19932;-66
2023/01/11 06:37:19;;;;;;;;;;;7.50;99.90;;;;;;5096142;28;20397;-65
2023/01/11 06:39:46;;;;;;;;;;;7.50;99.90;;;;;;5093293;28;19924;-66
2023/01/11 06:42:14;;;;;;;;;;;7.50;99.90;;;;;;5095169;28;19956;-66
2023/01/11 06:44:42;;;;;;;;;;;7.60;99.90;;;;;;5084306;28;20471;-65
2023/01/11 06:47:10;;;;;;;;;;;7.60;99.90;;;;;;5083895;28;19934;-65
2023/01/11 06:49:37;;;;;;;;;;;7.60;99.90;;;;;;5086989;28;19930;-66
2023/01/11 06:52:06;;;;;;;;;;;7.60;99.90;;;;;;5092528;28;20367;-66
2023/01/11 06:54:34;;;;;;;;;;;7.50;99.90;;;;;;5082250;28;20459;-65
2023/01/11 06:57:02;;;;;;;;;;;7.60;99.90;;;;;;5088833;28;19924;-66
2023/01/11 06:59:29;;;;;;;;;;;7.50;99.90;;;;;;5084215;28;20366;-65
2023/01/11 07:01:58;;;;;;;;;;;7.60;99.90;;;;;;5077851;28;19993;-65
2023/01/11 07:04:25;;;;;;;;;;;7.60;99.90;;;;;;5079686;28;20003;-66
2023/01/11 07:06:54;;;;;;;;;;;7.70;99.90;;;;;;5089546;28;19950;-65
2023/01/11 07:09:23;;;;;;;;;;;7.60;99.90;;;;;;5085332;28;20019;-65
2023/01/11 07:11:51;;;;;;;;;;;7.60;99.90;;;;;;5076817;28;19931;-66
2023/01/11 07:14:18;;;;;;;;;;;7.60;99.90;;;;;;5087966;28;20015;-67
2023/01/11 07:16:46;;;;;;;;;;;7.60;99.90;;;;;;5089834;28;20581;-66
2023/01/11 07:19:14;;;;;;;;;;;7.70;99.90;;;;;;5096803;28;19924;-66
2023/01/11 07:21:42;;;;;;;;;;;7.70;99.90;;;;;;5078780;28;19925;-66
2023/01/11 07:24:09;;;;;;;;;;;7.60;99.90;;;;;;5077636;28;20015;-67
2023/01/11 07:26:40;;;;;;;;;;;7.60;99.90;;;;;;5090207;28;19924;-68
2023/01/11 07:29:08;;;;;;;;;;;7.70;99.90;;;;;;5080290;28;20015;-67
2023/01/11 07:31:35;;;;;;;;;;;7.70;99.90;;;;;;5099835;28;20010;-68
2023/01/11 07:34:03;;;;;;;;;;;7.70;99.90;;;;;;5093220;28;20393;-67
2023/01/11 07:36:35;;;;;;;;;;;7.70;99.90;;;;;;5093313;28;19970;-67
2023/01/11 07:39:03;;;;;;;;;;;7.70;99.90;;;;;;5093060;28;20018;-67
2023/01/11 07:44:17;;;;;;;;;;;7.80;99.90;;;;;;5072818;28;19924;-67
2023/01/11 07:46:45;;;;;;;;;;;7.80;99.90;;;;;;5072906;28;19931;-67
2023/01/11 07:49:12;;;;;;;;;;;7.80;99.90;;;;;;5072804;28;19928;-68
2023/01/11 07:51:40;;;;;;;;;;;7.80;99.90;;;;;;5072104;28;19925;-67
2023/01/11 07:54:08;;;;;;;;;;;7.90;99.90;;;;;;5087379;28;19923;-68
2023/01/11 07:56:36;;;;;;;;;;;7.90;99.90;;;;;;5081925;28;20389;-68
2023/01/11 07:59:03;;;;;;;;;;;7.90;99.90;;;;;;5072735;28;20571;-68
2023/01/11 08:01:32;;;;;;;;;;;7.90;99.90;;;;;;5071904;28;19974;-68
2023/01/11 08:04:00;;;;;;;;;;;8.00;99.90;;;;;;5072420;28;19931;-68
2023/01/11 08:06:28;;;;;;;;;;;8.00;99.90;;;;;;5072210;28;19930;-67
2023/01/11 08:08:55;;;;;;;;;;;8.00;99.90;;;;;;5072318;28;19924;-68
2023/01/11 08:16:56;;;;;;;;;;;8.10;99.90;;;;;;5072004;28;19924;-68
2023/01/11 08:19:24;;;;;;;;;;;8.10;99.90;;;;;;5072334;28;19931;-67
2023/01/11 08:21:52;;;;;;;;;;;8.00;99.90;;;;;;5071901;28;19975;-68
2023/01/11 08:24:20;;;;;;;;;;;8.00;99.90;;;;;;5089441;28;19923;-67
2023/01/11 08:26:47;;;;;;;;;;;8.00;99.90;;;;;;5104621;28;19928;-68
2023/01/11 08:29:15;;;;;;;;;;;8.10;99.90;;;;;;5112545;28;19962;-68
2023/01/11 08:31:43;;;;;;;;;;;8.10;99.90;;;;;;5111932;28;20385;-68
2023/01/11 08:34:12;;;;;;;;;;;8.10;99.90;;;;;;5112421;28;19932;-68
2023/01/11 08:36:40;;;;;;;;;;;8.10;99.90;;;;;;5112281;28;20297;-67
2023/01/11 08:39:07;;;;;;;;;;;8.10;99.90;;;;;;5111949;28;20026;-68
2023/01/11 08:41:37;;;;;;;;;;;8.10;99.90;;;;;;5075414;28;19932;-68
2023/01/11 08:44:05;;;;;;;;;;;8.10;99.90;;;;;;5071573;28;19928;-67
2023/01/11 08:46:33;;;;;;;;;;;8.20;99.90;;;;;;5071774;28;19974;-68
2023/01/11 08:49:00;;;;;;;;;;;8.10;99.90;;;;;;5072092;28;20332;-67
2023/01/11 08:51:30;;;;;;;;;;;8.10;99.90;;;;;;5071145;28;20399;-68
2023/01/11 08:53:58;;;;;;;;;;;8.10;99.90;;;;;;5083877;28;20014;-68
2023/01/11 08:56:25;;;;;;;;;;;8.10;99.90;;;;;;5103234;28;19932;-68
2023/01/11 08:58:53;;;;;;;;;;;8.10;99.90;;;;;;5112151;28;19924;-67
2023/01/11 09:01:21;;;;;;;;;;;8.20;99.90;;;;;;5111438;28;19930;-68
2023/01/11 09:03:49;;;;;;;;;;;8.20;99.90;;;;;;5112240;28;19927;-68
2023/01/11 09:06:17;;;;;;;;;;;8.20;99.90;;;;;;5112159;28;19963;-68
2023/01/11 09:08:47;;;;;;;;;;;8.20;99.90;;;;;;5112004;28;20499;-68
2023/01/11 09:13:56;;;;;;;;;;;8.20;99.90;;;;;;5070652;28;20019;-68
2023/01/11 09:16:24;;;;;;;;;;;8.20;99.90;;;;;;5071156;28;19925;-68
2023/01/11 09:18:52;;;;;;;;;;;8.20;99.90;;;;;;5071746;28;19928;-68
2023/01/11 09:21:19;;;;;;;;;;;8.20;99.90;;;;;;5070715;28;19932;-68
2023/01/11 09:23:48;;;;;;;;;;;8.20;99.90;;;;;;5079647;28;20340;-68
2023/01/11 09:26:16;;;;;;;;;;;8.30;99.90;;;;;;5098614;28;19924;-68
2023/01/11 09:28:43;;;;;;;;;;;8.20;99.90;;;;;;5091738;28;19931;-68
2023/01/11 09:31:11;;;;;;;;;;;8.20;99.90;;;;;;5091015;28;19924;-68
2023/01/11 09:33:39;;;;;;;;;;;8.30;99.90;;;;;;5091617;28;19934;-68
2023/01/11 09:36:07;;;;;;;;;;;8.20;99.90;;;;;;5091370;28;20022;-68
2023/01/11 09:38:37;;;;;;;;;;;8.30;99.90;;;;;;5090717;28;19974;-67
2023/01/11 09:41:16;;;;;;;;;;;8.30;99.90;;;;;;5090913;28;20030;-68
2023/01/11 09:43:49;;;;;;;;;;;8.30;99.90;;;;;;5091682;28;19947;-68
2023/01/11 09:46:18;;;;;;;;;;;8.30;99.90;;;;;;5091352;28;20019;-68
2023/01/11 09:48:47;;;;;;;;;;;8.30;99.90;;;;;;5091546;28;19924;-68
2023/01/11 09:51:18;;;;;;;;;;;8.30;99.90;;;;;;5090684;28;20018;-68
2023/01/11 09:53:50;;;;;;;;;;;8.30;99.90;;;;;;5086906;28;20018;-68
2023/01/11 09:56:24;;;;;;;;;;;8.40;99.90;;;;;;5094808;28;19925;-68
2023/01/11 09:58:56;;;;;;;;;;;8.40;99.90;;;;;;5075004;28;19928;-68
2023/01/11 10:01:30;;;;;;;;;;;8.40;99.90;;;;;;5074455;28;19924;-68
2023/01/11 10:04:25;;;;;;;;;;;8.40;99.90;;;;;;5074963;28;19971;-68
2023/01/11 10:07:01;;;;;;;;;;;8.40;99.90;;;;;;5074491;28;20390;-68
2023/01/11 10:09:33;;;;;;;;;;;8.40;99.90;;;;;;5085325;28;20412;-68
2023/01/11 10:12:26;;;;;;;;;;;8.40;99.90;;;;;;5075155;28;19936;-68
2023/01/11 10:15:16;;;;;;;;;;;8.50;99.90;;;;;;5074702;28;19932;-68
2023/01/11 10:18:18;;;;;;;;;;;8.50;99.90;;;;;;5074352;28;19924;-68
2023/01/11 10:21:09;;;;;;;;;;;8.50;99.90;;;;;;5073864;28;19925;-68
2023/01/11 10:23:43;;;;;;;;;;;8.50;99.90;;;;;;5080817;28;20464;-68
2023/01/11 10:26:22;;;;;;;;;;;8.50;99.90;;;;;;5106120;28;20475;-68
2023/01/11 10:29:06;;;;;;;;;;;8.50;99.90;;;;;;5115174;28;19959;-68
2023/01/11 10:31:48;;;;;;;;;;;8.50;99.90;;;;;;5114303;28;19924;-68
2023/01/11 10:34:37;;;;;;;;;;;8.60;99.90;;;;;;5115001;28;19923;-68
2023/01/11 10:37:25;;;;;;;;;;;8.60;99.90;;;;;;5114887;28;19960;-68
2023/01/11 10:40:17;;;;;;;;;;;8.60;99.90;;;;;;5093352;28;20364;-69
2023/01/11 10:42:47;;;;;;;;;;;8.60;99.90;;;;;;5094388;28;19965;-68
2023/01/11 10:45:18;;;;;;;;;;;8.70;99.90;;;;;;5094245;28;20011;-68
2023/01/11 10:47:54;;;;;;;;;;;8.70;99.90;;;;;;5094363;28;19974;-68
2023/01/11 10:50:26;;;;;;;;;;;8.70;99.90;;;;;;5093375;28;19924;-68
2023/01/11 10:52:57;;;;;;;;;;;8.70;99.90;;;;;;5088240;28;20393;-69
2023/01/11 10:55:30;;;;;;;;;;;8.70;99.90;;;;;;5086545;28;19954;-69
2023/01/11 10:58:08;;;;;;;;;;;8.80;99.90;;;;;;5094050;28;20007;-69
2023/01/11 11:00:41;;;;;;;;;;;8.90;99.90;;;;;;5093152;28;19924;-68
2023/01/11 11:03:17;;;;;;;;;;;8.90;99.90;;;;;;5093498;28;19924;-68
2023/01/11 11:05:49;;;;;;;;;;;9.00;99.90;;;;;;5093876;28;20428;-68
2023/01/11 11:08:21;;;;;;;;;;;9.00;99.90;;;;;;5093076;28;20376;-69
2023/01/11 11:10:53;;;;;;;;;;;9.10;99.90;;;;;;5092985;28;19924;-69
2023/01/11 11:13:23;;;;;;;;;;;9.20;99.90;;;;;;5094058;28;19983;-69
2023/01/11 11:15:55;;;;;;;;;;;9.10;99.90;;;;;;5093605;28;20024;-69
2023/01/11 11:18:23;;;;;;;;;;;9.30;99.90;;;;;;5093746;28;19928;-67
2023/01/11 11:20:51;;;;;;;;;;;9.30;99.90;;;;;;5092818;28;20023;-66
2023/01/11 11:23:21;;;;;;;;;;;9.30;99.90;;;;;;5081429;28;19928;-67
2023/01/11 11:25:51;;;;;;;;;;;9.40;99.90;;;;;;5105498;28;19924;-66
2023/01/11 11:28:25;;;;;;;;;;;9.40;99.90;;;;;;5114094;28;19978;-67
2023/01/11 11:30:56;;;;;;;;;;;9.50;99.90;;;;;;5113003;28;20030;-66
2023/01/11 11:33:24;;;;;;;;;;;9.60;99.90;;;;;;5113987;28;19931;-66
2023/01/11 11:35:56;;;;;;;;;;;9.70;99.90;;;;;;5113765;28;20026;-66
2023/01/11 11:38:25;;;;;;;;;;;9.80;99.90;;;;;;5079461;28;19929;-66
2023/01/11 11:41:04;;;;;;;;;;;9.80;99.90;;;;;;5072124;28;19931;-66
2023/01/11 11:43:32;;;;;;;;;;;9.90;99.90;;;;;;5073450;28;19971;-66
2023/01/11 11:46:02;;;;;;;;;;;9.90;99.90;;;;;;5072761;28;20022;-66
2023/01/11 11:48:31;;;;;;;;;;;9.90;99.90;;;;;;5072938;28;19925;-66
2023/01/11 11:51:00;;;;;;;;;;;9.90;99.90;;;;;;5072189;28;19925;-66
2023/01/11 11:53:36;;;;;;;;;;;9.80;99.90;;;;;;5076415;28;19931;-66
2023/01/11 11:56:14;;;;;;;;;;;9.80;99.90;;;;;;5104578;28;19946;-66
2023/01/11 11:58:42;;;;;;;;;;;9.90;99.90;;;;;;5113360;28;19974;-66
2023/01/11 12:01:21;;;;;;;;;;;10.00;99.90;;;;;;5112673;28;20022;-67
2023/01/11 12:03:49;;;;;;;;;;;10.10;99.90;;;;;;5113168;28;19930;-67
2023/01/11 12:06:21;;;;;;;;;;;10.20;99.90;;;;;;5105367;28;20035;-67
2023/01/11 12:08:49;;;;;;;;;;;10.20;99.90;;;;;;5072571;28;19986;-67
2023/01/11 12:11:19;;;;;;;;;;;10.30;99.90;;;;;;5071874;28;19931;-67
2023/01/11 12:13:58;;;;;;;;;;;10.30;99.90;;;;;;5071273;28;22436;-67
2023/01/11 12:16:34;;;;;;;;;;;10.40;99.90;;;;;;5098939;22;19928;31
2023/01/11 12:19:02;;;;;;;;;;;10.40;99.90;;;;;;5003953;28;19932;-64
2023/01/11 12:21:30;;;;;;;;;;;10.40;99.90;;;;;;5004776;28;20004;-63
2023/01/11 12:24:15;;;;;;;;;;;10.40;99.90;;;;;;5005916;28;19925;-63
2023/01/11 12:26:48;;;;;;;;;;;10.50;99.90;;;;;;5003360;28;19934;-63
2023/01/11 12:29:28;;;;;;;;;;;10.50;99.90;;;;;;5001163;28;20020;-63
2023/01/11 12:32:04;;;;;;;;;;;10.50;99.90;;;;;;5004067;28;19947;-63
2023/01/11 12:34:42;;;;;;;;;;;10.50;99.90;;;;;;5006295;28;20076;-64
2023/01/11 12:37:15;;;;;;;;;;;10.50;99.90;;;;;;5007200;28;20027;-63
2023/01/11 12:39:45;;;;;;;;;;;10.50;99.90;;;;;;5011142;28;20103;-63
2023/01/11 12:42:29;;;;;;;;;;;10.50;99.90;;;;;;5011760;28;19925;-63
2023/01/11 12:45:02;;;;;;;;;;;10.50;99.90;;;;;;5010603;28;19926;-63
2023/01/11 12:47:45;;;;;;;;;;;10.60;99.90;;;;;;5005200;28;20057;-63
2023/01/11 12:50:17;;;;;;;;;;;10.60;99.90;;;;;;4992613;28;19930;-64
2023/01/11 12:52:52;;;;;;;;;;;10.60;99.90;;;;;;4999622;28;20300;-64
2023/01/11 12:55:29;;;;;;;;;;;10.60;99.90;;;;;;5002237;28;19926;-64
2023/01/11 12:58:00;;;;;;;;;;;10.60;99.90;;;;;;5001686;28;20479;-64
2023/01/11 13:00:46;;;;;;;;;;;10.50;99.90;;;;;;5001813;28;19962;-63
2023/01/11 13:03:33;;;;;;;;;;;10.50;99.90;;;;;;4998638;28;19961;-64
2023/01/11 13:06:06;;;;;;;;;;;10.50;99.90;;;;;;5004081;28;19956;-62
2023/01/11 13:08:39;;;;;;;;;;;10.50;99.90;;;;;;5011564;28;19930;-64
2023/01/11 13:11:11;;;;;;;;;;;10.50;99.90;;;;;;5011138;28;19926;-63
2023/01/11 13:13:45;;;;;;;;;;;10.40;99.90;;;;;;4995894;28;20310;-63
2023/01/11 13:16:16;;;;;;;;;;;10.50;99.90;;;;;;5011133;28;19964;-63
2023/01/11 13:18:47;;;;;;;;;;;10.50;99.90;;;;;;5011344;28;19925;-63
2023/01/11 13:21:23;;;;;;;;;;;10.40;99.90;;;;;;5010800;28;20346;-63
2023/01/11 13:23:53;;;;;;;;;;;10.40;99.90;;;;;;5011238;28;19932;-64
2023/01/11 13:26:22;;;;;;;;;;;10.40;99.90;;;;;;5012917;28;19980;-64
2023/01/11 13:28:54;;;;;;;;;;;10.40;99.90;;;;;;5015579;28;20024;-63
2023/01/11 13:31:22;;;;;;;;;;;10.50;99.90;;;;;;5014695;28;19947;-63
2023/01/11 13:33:53;;;;;;;;;;;10.40;99.90;;;;;;5015175;28;19964;-63
2023/01/11 13:36:25;;;;;;;;;;;10.40;99.90;;;;;;5015317;28;19948;-63
2023/01/11 13:38:55;;;;;;;;;;;10.40;99.90;;;;;;5015184;28;20024;-64
2023/01/11 13:41:25;;;;;;;;;;;10.40;99.90;;;;;;5014462;28;20024;-63
2023/01/11 13:43:55;;;;;;;;;;;10.40;99.90;;;;;;5015518;28;19925;-63
2023/01/11 13:46:34;;;;;;;;;;;10.40;99.90;;;;;;5015059;28;19940;-64
2023/01/11 13:49:06;;;;;;;;;;;10.40;99.90;;;;;;5015346;28;19925;-63
2023/01/11 13:51:38;;;;;;;;;;;10.40;99.90;;;;;;5014597;28;20356;-64
2023/01/11 13:54:08;;;;;;;;;;;10.40;99.90;;;;;;5013943;28;20013;-63
2023/01/11 13:56:39;;;;;;;;;;;10.40;99.90;;;;;;5014462;28;19931;-64
2023/01/11 13:59:11;;;;;;;;;;;10.40;99.90;;;;;;5015251;28;19972;-62
2023/01/11 14:01:42;;;;;;;;;;;10.40;99.90;;;;;;5014532;28;19979;-63
2023/01/11 14:04:13;;;;;;;;;;;10.40;99.90;;;;;;5015161;28;20032;-62
2023/01/11 14:06:52;;;;;;;;;;;10.40;99.90;;;;;;5014668;28;20580;-62
2023/01/11 14:09:31;;;;;;;;;;;10.40;99.90;;;;;;5014635;28;19930;-63
2023/01/11 14:12:02;;;;;;;;;;;10.40;99.90;;;;;;5015032;28;20257;-63
2023/01/11 14:14:39;;;;;;;;;;;10.30;99.90;;;;;;5014802;28;19930;-62
2023/01/11 14:17:17;;;;;;;;;;;10.30;99.90;;;;;;5014391;28;19968;-63
2023/01/11 14:19:48;;;;;;;;;;;10.30;99.90;;;;;;5013768;28;20008;-63
2023/01/11 14:22:21;;;;;;;;;;;10.30;99.90;;;;;;5014895;28;20036;-63
2023/01/11 14:24:53;;;;;;;;;;;10.20;99.90;;;;;;5014489;28;19936;-63
2023/01/11 14:27:44;;;;;;;;;;;10.20;99.90;;;;;;5014372;28;19932;-63
2023/01/11 14:30:19;;;;;;;;;;;10.20;99.90;;;;;;5013619;28;19983;-62
2023/01/11 14:33:03;;;;;;;;;;;10.20;99.90;;;;;;5014638;28;20298;-62
2023/01/11 14:35:39;;;;;;;;;;;10.10;99.90;;;;;;5014959;28;20028;-63
2023/01/11 14:38:18;;;;;;;;;;;10.00;99.90;;;;;;5013379;28;19932;-63
2023/01/11 14:40:51;;;;;;;;;;;10.00;99.90;;;;;;5013675;28;19932;-62
2023/01/11 14:43:34;;;;;;;;;;;10.00;99.90;;;;;;5014413;28;19929;-62
2023/01/11 14:46:08;;;;;;;;;;;10.00;99.90;;;;;;5011196;28;19975;-62
2023/01/11 14:48:41;;;;;;;;;;;9.90;99.90;;;;;;5013939;28;19932;-63
2023/01/11 14:51:16;;;;;;;;;;;9.90;99.90;;;;;;5013778;28;19969;-63
2023/01/11 14:53:47;;;;;;;;;;;9.90;99.90;;;;;;5014263;28;19991;-63
2023/01/11 14:56:33;;;;;;;;;;;9.80;99.90;;;;;;5014061;28;20036;-64
2023/01/11 14:59:02;;;;;;;;;;;9.90;99.90;;;;;;5013711;28;19925;-63
2023/01/11 15:01:29;;;;;;;;;;;9.80;99.90;;;;;;5013384;28;19961;-63
2023/01/11 15:03:57;;;;;;;;;;;9.80;99.90;;;;;;5013995;28;19961;-63
2023/01/11 15:06:30;;;;;;;;;;;9.80;99.90;;;;;;5013741;28;19925;-62
2023/01/11 15:08:59;;;;;;;;;;;9.70;99.90;;;;;;5013611;28;20024;-63
2023/01/11 15:11:36;;;;;;;;;;;9.70;99.90;;;;;;5013155;28;19967;-64
2023/01/11 15:14:07;;;;;;;;;;;9.60;99.90;;;;;;5013688;28;20298;-63